Time,TemperatureF,DewpointF,PressureIn,WindDirection,WindDirectionDegrees,WindSpeedMPH,WindSpeedGustMPH,Humidity,HourlyPrecipIn,Conditions,Clouds,dailyrainin,SolarRadiationWatts/m^2,SoftwareType,DateUTC
2013-04-10 00:12:00,53.9,45.0,29.88,NNE,21,3.0,-999.0,71,-99.99,,,0.00,0,weatherlink.com 1.10,2013-04-10 04:12:00,
2013-04-10 00:27:00,53.7,45.0,29.88,NNE,29,0.0,-999.0,72,-99.99,,,0.00,0,weatherlink.com 1.10,2013-04-10 04:27:00,
2013-04-10 00:42:00,53.4,45.0,29.88,NNE,29,0.0,-999.0,72,-99.99,,,0.00,0,weatherlink.com 1.10,2013-04-10 04:42:00,
2013-04-10 00:57:00,53.2,45.0,29.87,NNE,29,0.0,-999.0,74,-99.99,,,0.00,0,weatherlink.com 1.10,2013-04-10 04:57:00,
2013-04-10 01:27:00,57.6,44.0,29.85,SW,235,2.0,-999.0,61,-99.99,,,0.00,0,weatherlink.com 1.10,2013-04-10 05:27:00,
2013-04-10 01:42:00,59.1,44.0,29.84,SW,225,0.0,-999.0,57,-99.99,,,0.00,0,weatherlink.com 1.10,2013-04-10 05:42:00,
2013-04-10 01:57:00,59.1,45.0,29.82,SW,225,0.0,-999.0,59,-99.99,,,0.00,0,weatherlink.com 1.10,2013-04-10 05:57:00,
2013-04-10 02:12:00,59.1,44.0,29.81,SW,225,0.0,-999.0,57,-99.99,,,0.00,0,weatherlink.com 1.10,2013-04-10 06:12:00,
2013-04-10 02:27:00,58.0,46.0,29.80,SW,225,1.0,-999.0,65,-99.99,,,0.00,0,weatherlink.com 1.10,2013-04-10 06:27:00,
2013-04-10 02:42:00,59.0,44.0,29.92,NNE,17,4.0,-999.0,59,-99.99,,,0.00,0,weatherlink.com 1.10,2013-04-10 06:42:00,
2013-04-10 02:57:00,54.3,48.0,29.90,ENE,62,10.0,-999.0,79,-99.99,,,0.03,0,weatherlink.com 1.10,2013-04-10 06:57:00,
2013-04-10 03:12:00,51.8,48.0,29.90,NNE,19,8.0,-999.0,86,-99.99,,,0.05,0,weatherlink.com 1.10,2013-04-10 07:12:00,
2013-04-10 03:27:00,50.6,48.0,29.90,NNE,25,8.0,-999.0,90,-99.99,,,0.05,0,weatherlink.com 1.10,2013-04-10 07:27:00,
2013-04-10 03:42:00,50.3,48.0,29.87,NNE,12,0.0,-999.0,91,-99.99,,,0.05,0,weatherlink.com 1.10,2013-04-10 07:42:00,
2013-04-10 04:12:00,50.0,48.0,29.84,NNW,343,0.0,-999.0,92,-99.99,,,0.05,0,weatherlink.com 1.10,2013-04-10 08:12:00,
2013-04-10 04:27:00,50.0,48.0,29.84,NNW,343,0.0,-999.0,93,-99.99,,,0.05,0,weatherlink.com 1.10,2013-04-10 08:27:00,
2013-04-10 04:42:00,50.0,48.0,29.84,NNW,343,4.0,-999.0,93,-99.99,,,0.05,0,weatherlink.com 1.10,2013-04-10 08:42:00,
2013-04-10 04:57:00,50.0,48.0,29.85,NNW,343,0.0,-999.0,93,-99.99,,,0.05,0,weatherlink.com 1.10,2013-04-10 08:57:00,
2013-04-10 05:12:00,50.0,48.0,29.86,NNW,343,0.0,-999.0,94,-99.99,,,0.05,0,weatherlink.com 1.10,2013-04-10 09:12:00,
2013-04-10 05:27:00,49.9,48.0,29.85,NNW,343,0.0,-999.0,94,-99.99,,,0.05,0,weatherlink.com 1.10,2013-04-10 09:27:00,
2013-04-10 05:42:00,50.0,48.0,29.88,NNW,343,2.0,-999.0,94,-99.99,,,0.05,0,weatherlink.com 1.10,2013-04-10 09:42:00,
2013-04-10 05:57:00,50.0,48.0,29.87,NNW,343,0.0,-999.0,94,-99.99,,,0.05,0,weatherlink.com 1.10,2013-04-10 09:57:00,
2013-04-10 06:12:00,49.8,48.0,29.86,NNW,343,0.0,-999.0,94,-99.99,,,0.05,0,weatherlink.com 1.10,2013-04-10 10:12:00,
2013-04-10 06:27:00,49.8,48.0,29.86,NNW,343,0.0,-999.0,94,-99.99,,,0.05,0,weatherlink.com 1.10,2013-04-10 10:27:00,
2013-04-10 06:42:00,49.7,48.0,29.88,NNW,343,0.0,-999.0,94,-99.99,,,0.05,12,weatherlink.com 1.10,2013-04-10 10:42:00,
2013-04-10 06:57:00,49.7,48.0,29.89,NNW,343,0.0,-999.0,95,-99.99,,,0.05,19,weatherlink.com 1.10,2013-04-10 10:57:00,
2013-04-10 07:12:00,50.1,49.0,29.89,NNW,343,1.0,-999.0,95,-99.99,,,0.05,67,weatherlink.com 1.10,2013-04-10 11:12:00,
2013-04-10 07:27:00,50.5,49.0,29.90,NNW,343,0.0,-999.0,95,-99.99,,,0.06,67,weatherlink.com 1.10,2013-04-10 11:27:00,
2013-04-10 07:42:00,50.3,49.0,29.90,NNW,343,2.0,-999.0,94,-99.99,,,0.06,69,weatherlink.com 1.10,2013-04-10 11:42:00,
2013-04-10 07:57:00,50.7,49.0,29.92,NNW,343,0.0,-999.0,94,-99.99,,,0.06,134,weatherlink.com 1.10,2013-04-10 11:57:00,
2013-04-10 08:12:00,51.2,50.0,29.93,NNW,343,0.0,-999.0,94,-99.99,,,0.06,128,weatherlink.com 1.10,2013-04-10 12:12:00,
2013-04-10 08:27:00,51.4,50.0,29.92,NNW,343,1.0,-999.0,93,-99.99,,,0.06,160,weatherlink.com 1.10,2013-04-10 12:27:00,
2013-04-10 08:42:00,51.7,50.0,29.92,NNW,343,0.0,-999.0,92,-99.99,,,0.06,135,weatherlink.com 1.10,2013-04-10 12:42:00,
2013-04-10 08:57:00,52.2,50.0,29.93,NNW,343,0.0,-999.0,91,-99.99,,,0.06,190,weatherlink.com 1.10,2013-04-10 12:57:00,
2013-04-10 09:12:00,53.4,51.0,29.92,NNW,343,0.0,-999.0,90,-99.99,,,0.06,297,weatherlink.com 1.10,2013-04-10 13:12:00,
2013-04-10 09:27:00,54.0,50.0,29.92,NNW,343,2.0,-999.0,86,-99.99,,,0.06,308,weatherlink.com 1.10,2013-04-10 13:27:00,
2013-04-10 09:42:00,54.8,51.0,29.93,NNW,343,0.0,-999.0,86,-99.99,,,0.06,376,weatherlink.com 1.10,2013-04-10 13:42:00,
2013-04-10 09:57:00,55.3,50.0,29.92,East,92,0.0,-999.0,83,-99.99,,,0.06,313,weatherlink.com 1.10,2013-04-10 13:57:00,
2013-04-10 10:12:00,56.1,51.0,29.92,ESE,110,0.0,-999.0,82,-99.99,,,0.06,497,weatherlink.com 1.10,2013-04-10 14:12:00,
2013-04-10 10:27:00,57.2,51.0,29.92,ESE,111,0.0,-999.0,81,-99.99,,,0.06,374,weatherlink.com 1.10,2013-04-10 14:27:00,
2013-04-10 10:42:00,57.5,52.0,29.92,ESE,107,1.0,-999.0,82,-99.99,,,0.06,504,weatherlink.com 1.10,2013-04-10 14:42:00,
2013-04-10 10:57:00,58.7,53.0,29.93,NNW,331,3.0,-999.0,80,-99.99,,,0.06,346,weatherlink.com 1.10,2013-04-10 14:57:00,
2013-04-10 11:12:00,59.8,53.0,29.93,NNW,342,2.0,-999.0,78,-99.99,,,0.06,214,weatherlink.com 1.10,2013-04-10 15:12:00,
2013-04-10 11:27:00,59.9,52.0,29.93,ENE,73,2.0,-999.0,76,-99.99,,,0.06,234,weatherlink.com 1.10,2013-04-10 15:27:00,
2013-04-10 11:42:00,60.0,52.0,29.93,North,10,2.0,-999.0,76,-99.99,,,0.06,197,weatherlink.com 1.10,2013-04-10 15:42:00,
2013-04-10 11:57:00,58.8,52.0,29.93,NW,319,0.0,-999.0,78,-99.99,,,0.06,264,weatherlink.com 1.10,2013-04-10 15:57:00,
2013-04-10 12:12:00,59.1,52.0,29.93,NW,309,2.0,-999.0,78,-99.99,,,0.06,257,weatherlink.com 1.10,2013-04-10 16:12:00,
2013-04-10 12:27:00,59.2,52.0,29.94,NNW,327,0.0,-999.0,78,-99.99,,,0.06,163,weatherlink.com 1.10,2013-04-10 16:27:00,
2013-04-10 12:42:00,59.7,52.0,29.93,NNW,327,2.0,-999.0,77,-99.99,,,0.06,232,weatherlink.com 1.10,2013-04-10 16:42:00,
2013-04-10 12:57:00,60.5,53.0,29.93,NNW,327,0.0,-999.0,76,-99.99,,,0.06,364,weatherlink.com 1.10,2013-04-10 16:57:00,
2013-04-10 13:12:00,61.4,53.0,29.92,ENE,61,1.0,-999.0,73,-99.99,,,0.06,584,weatherlink.com 1.10,2013-04-10 17:12:00,
2013-04-10 13:27:00,62.3,54.0,29.92,North,11,0.0,-999.0,73,-99.99,,,0.06,742,weatherlink.com 1.10,2013-04-10 17:27:00,
2013-04-10 13:42:00,62.1,53.0,29.92,NW,319,0.0,-999.0,72,-99.99,,,0.06,283,weatherlink.com 1.10,2013-04-10 17:42:00,
2013-04-10 13:57:00,62.3,53.0,29.92,North,360,0.0,-999.0,72,-99.99,,,0.06,144,weatherlink.com 1.10,2013-04-10 17:57:00,
2013-04-10 14:12:00,62.0,53.0,29.91,NNE,17,2.0,-999.0,73,-99.99,,,0.06,162,weatherlink.com 1.10,2013-04-10 18:12:00,
2013-04-10 14:27:00,62.3,54.0,29.91,NNE,30,2.0,-999.0,73,-99.99,,,0.06,232,weatherlink.com 1.10,2013-04-10 18:27:00,
2013-04-10 14:42:00,61.9,53.0,29.90,NNE,30,2.0,-999.0,72,-99.99,,,0.06,149,weatherlink.com 1.10,2013-04-10 18:42:00,
2013-04-10 14:57:00,62.1,53.0,29.90,North,9,5.0,-999.0,71,-99.99,,,0.06,165,weatherlink.com 1.10,2013-04-10 18:57:00,
2013-04-10 15:12:00,61.9,53.0,29.88,NE,38,1.0,-999.0,72,-99.99,,,0.06,272,weatherlink.com 1.10,2013-04-10 19:12:00,
2013-04-10 15:27:00,62.0,52.0,29.88,NE,38,2.0,-999.0,71,-99.99,,,0.06,132,weatherlink.com 1.10,2013-04-10 19:27:00,
2013-04-10 15:42:00,61.9,52.0,29.86,ENE,60,2.0,-999.0,71,-99.99,,,0.06,148,weatherlink.com 1.10,2013-04-10 19:42:00,
2013-04-10 15:57:00,62.3,52.0,29.86,East,80,0.0,-999.0,70,-99.99,,,0.06,149,weatherlink.com 1.10,2013-04-10 19:57:00,
2013-04-10 16:12:00,63.0,53.0,29.84,East,81,0.0,-999.0,69,-99.99,,,0.06,237,weatherlink.com 1.10,2013-04-10 20:12:00,
2013-04-10 16:27:00,64.7,53.0,29.84,SE,135,0.0,-999.0,67,-99.99,,,0.06,482,weatherlink.com 1.10,2013-04-10 20:27:00,
2013-04-10 16:42:00,66.1,53.0,29.83,ESE,103,4.0,-999.0,64,-99.99,,,0.06,399,weatherlink.com 1.10,2013-04-10 20:42:00,
2013-04-10 16:57:00,66.5,54.0,29.82,South,190,4.0,-999.0,65,-99.99,,,0.06,385,weatherlink.com 1.10,2013-04-10 20:57:00,
2013-04-10 17:12:00,67.2,54.0,29.81,East,100,0.0,-999.0,63,-99.99,,,0.06,329,weatherlink.com 1.10,2013-04-10 21:12:00,
2013-04-10 17:27:00,67.0,54.0,29.80,South,171,1.0,-999.0,63,-99.99,,,0.06,160,weatherlink.com 1.10,2013-04-10 21:27:00,
2013-04-10 17:42:00,67.0,54.0,29.80,SSW,194,0.0,-999.0,64,-99.99,,,0.06,113,weatherlink.com 1.10,2013-04-10 21:42:00,
2013-04-10 17:57:00,67.0,54.0,29.80,SSW,194,0.0,-999.0,64,-99.99,,,0.06,79,weatherlink.com 1.10,2013-04-10 21:57:00,
2013-04-10 18:12:00,67.2,55.0,29.81,SSW,194,0.0,-999.0,64,-99.99,,,0.06,51,weatherlink.com 1.10,2013-04-10 22:12:00,
2013-04-10 18:27:00,67.2,55.0,29.80,SSW,200,5.0,-999.0,64,-99.99,,,0.06,21,weatherlink.com 1.10,2013-04-10 22:27:00,
2013-04-10 18:42:00,66.7,54.0,29.79,South,183,3.0,-999.0,64,-99.99,,,0.06,11,weatherlink.com 1.10,2013-04-10 22:42:00,
2013-04-10 18:57:00,65.8,54.0,29.81,South,179,0.0,-999.0,66,-99.99,,,0.06,0,weatherlink.com 1.10,2013-04-10 22:57:00,
2013-04-10 19:12:00,63.5,56.0,29.88,South,189,6.0,-999.0,77,-99.99,,,0.08,0,weatherlink.com 1.10,2013-04-10 23:12:00,
2013-04-10 19:27:00,60.6,56.0,29.85,SSW,210,2.0,-999.0,86,-99.99,,,0.12,0,weatherlink.com 1.10,2013-04-10 23:27:00,
2013-04-10 19:42:00,59.2,56.0,29.83,SSE,164,2.0,-999.0,89,-99.99,,,0.14,0,weatherlink.com 1.10,2013-04-10 23:42:00,
2013-04-10 19:57:00,58.6,56.0,29.79,South,170,5.0,-999.0,91,-99.99,,,0.16,0,weatherlink.com 1.10,2013-04-10 23:57:00,
2013-04-10 20:12:00,58.2,56.0,29.81,SSW,204,3.0,-999.0,92,-99.99,,,0.16,0,weatherlink.com 1.10,2013-04-11 00:12:00,
2013-04-10 20:27:00,57.9,56.0,29.82,SSW,204,0.0,-999.0,93,-99.99,,,0.16,0,weatherlink.com 1.10,2013-04-11 00:27:00,
2013-04-10 20:42:00,57.7,56.0,29.81,SSW,204,0.0,-999.0,93,-99.99,,,0.16,0,weatherlink.com 1.10,2013-04-11 00:42:00,
2013-04-10 20:57:00,57.3,56.0,29.79,SSW,204,4.0,-999.0,94,-99.99,,,0.16,0,weatherlink.com 1.10,2013-04-11 00:57:00,
2013-04-10 21:12:00,56.9,55.0,29.80,SSW,204,4.0,-999.0,94,-99.99,,,0.16,0,weatherlink.com 1.10,2013-04-11 01:12:00,
2013-04-10 21:27:00,56.5,55.0,29.81,SSW,194,0.0,-999.0,93,-99.99,,,0.16,0,weatherlink.com 1.10,2013-04-11 01:27:00,
2013-04-10 21:42:00,56.3,55.0,29.85,WSW,251,3.0,-999.0,94,-99.99,,,0.16,0,weatherlink.com 1.10,2013-04-11 01:42:00,
2013-04-10 21:57:00,56.2,55.0,29.86,WSW,250,0.0,-999.0,94,-99.99,,,0.20,0,weatherlink.com 1.10,2013-04-11 01:57:00,
2013-04-10 22:12:00,56.0,54.0,29.85,WSW,250,0.0,-999.0,94,-99.99,,,0.20,0,weatherlink.com 1.10,2013-04-11 02:12:00,
2013-04-10 22:27:00,55.9,55.0,29.83,WSW,250,0.0,-999.0,95,-99.99,,,0.22,0,weatherlink.com 1.10,2013-04-11 02:27:00,
2013-04-10 22:42:00,55.7,54.0,29.82,South,186,1.0,-999.0,95,-99.99,,,0.22,0,weatherlink.com 1.10,2013-04-11 02:42:00,
2013-04-10 22:57:00,55.6,54.0,29.83,South,176,0.0,-999.0,95,-99.99,,,0.22,0,weatherlink.com 1.10,2013-04-11 02:57:00,
2013-04-10 23:12:00,55.5,54.0,29.81,South,176,4.0,-999.0,96,-99.99,,,0.22,0,weatherlink.com 1.10,2013-04-11 03:12:00,
2013-04-10 23:42:00,55.5,54.0,29.81,South,184,4.0,-999.0,96,-99.99,,,0.22,0,weatherlink.com 1.10,2013-04-11 03:42:00,
2013-04-10 23:57:00,55.6,55.0,29.80,South,183,1.0,-999.0,96,-99.99,,,0.22,0,weatherlink.com 1.10,2013-04-11 03:57:00,